Time;durP1;ratioP1;P1;durP2;ratioP2;P2;SDS_P1;SDS_P2;PMS_P1;PMS_P2;Temp;Humidity;BMP_temperature;BMP_pressure;BME280_temperature;BME280_humidity;BME280_pressure;Samples;Min_cycle;Max_cycle;Signal;HPM_P1;HPM_P2
2021/11/03 00:00:17;;;;;;;63.85;25.90;;;;;;;;;;4982610;28;20121;-90
2021/11/03 00:02:43;;;;;;;65.85;27.60;;;;;;;;;;4999157;28;20477;-90
2021/11/03 00:05:12;;;;;;;60.47;25.65;;;;;;;;;;4981299;28;20069;-90
2021/11/03 00:07:37;;;;;;;72.95;26.73;;;;;;;;;;4985716;28;20076;-90
2021/11/03 00:10:04;;;;;;;73.80;26.48;;;;;;;;;;4997116;28;20022;-90
2021/11/03 00:12:30;;;;;;;65.80;26.77;;;;;;;;;;4981988;28;20022;-90
2021/11/03 00:14:56;;;;;;;70.15;26.90;;;;;;;;;;4982583;28;20495;-90
2021/11/03 00:17:21;;;;;;;72.53;27.88;;;;;;;;;;4980710;28;20104;-90
2021/11/03 00:19:47;;;;;;;58.38;24.88;;;;;;;;;;4980677;28;20030;-90
2021/11/03 00:22:14;;;;;;;65.45;26.45;;;;;;;;;;4985751;28;20030;-90
2021/11/03 00:24:40;;;;;;;68.75;26.23;;;;;;;;;;4980987;28;20058;-90
2021/11/03 00:27:05;;;;;;;61.58;25.88;;;;;;;;;;4992562;28;20421;-90
2021/11/03 00:29:31;;;;;;;65.68;26.52;;;;;;;;;;4988902;28;20022;-90
2021/11/03 00:31:56;;;;;;;73.55;26.45;;;;;;;;;;4981895;28;20504;-90
2021/11/03 00:34:21;;;;;;;71.47;28.33;;;;;;;;;;4995516;28;20053;-89
2021/11/03 00:36:47;;;;;;;77.40;26.77;;;;;;;;;;5003425;28;20034;-90
2021/11/03 00:39:12;;;;;;;70.55;27.75;;;;;;;;;;4991728;28;20482;-90
2021/11/03 00:41:38;;;;;;;65.15;27.30;;;;;;;;;;4994580;28;20396;-90
2021/11/03 00:44:04;;;;;;;64.78;26.63;;;;;;;;;;5000485;28;20026;-90
2021/11/03 00:46:29;;;;;;;62.90;26.48;;;;;;;;;;5000521;28;20032;-90
2021/11/03 00:48:55;;;;;;;65.30;27.17;;;;;;;;;;5000405;28;20038;-91
2021/11/03 00:51:20;;;;;;;67.38;26.65;;;;;;;;;;5000337;28;20441;-90
2021/11/03 00:53:45;;;;;;;64.18;26.00;;;;;;;;;;5016331;28;20107;-91
2021/11/03 00:56:12;;;;;;;62.30;26.08;;;;;;;;;;5000579;28;20485;-90
2021/11/03 00:58:37;;;;;;;64.22;26.40;;;;;;;;;;5000730;28;20488;-90
2021/11/03 01:01:03;;;;;;;57.45;25.15;;;;;;;;;;5001120;28;20036;-91
2021/11/03 01:03:28;;;;;;;60.83;25.77;;;;;;;;;;5000421;28;20033;-91
2021/11/03 01:05:54;;;;;;;59.22;24.38;;;;;;;;;;4999746;28;20085;-90
2021/11/03 01:08:19;;;;;;;64.70;27.23;;;;;;;;;;5002025;28;20470;-90
2021/11/03 01:10:48;;;;;;;60.88;24.35;;;;;;;;;;4982153;28;20033;-90
2021/11/03 01:13:16;;;;;;;62.80;25.70;;;;;;;;;;4981970;28;20429;-90
2021/11/03 01:15:42;;;;;;;60.88;26.20;;;;;;;;;;4980721;28;20057;-91
2021/11/03 01:18:07;;;;;;;54.67;24.52;;;;;;;;;;4980302;28;20045;-91
2021/11/03 01:20:33;;;;;;;65.07;25.55;;;;;;;;;;4981038;28;20090;-91
2021/11/03 01:22:59;;;;;;;75.38;26.92;;;;;;;;;;4981451;28;20065;-90
2021/11/03 01:25:26;;;;;;;70.07;27.00;;;;;;;;;;4980540;28;20134;-91
2021/11/03 01:27:51;;;;;;;63.83;26.20;;;;;;;;;;4989098;28;20026;-89
2021/11/03 01:30:20;;;;;;;63.17;26.35;;;;;;;;;;4986124;28;20555;-90
2021/11/03 01:32:46;;;;;;;65.07;26.35;;;;;;;;;;4980518;28;20096;-90
2021/11/03 01:35:12;;;;;;;64.85;25.02;;;;;;;;;;4981322;28;20034;-90
2021/11/03 01:37:39;;;;;;;69.00;27.85;;;;;;;;;;4981458;28;20030;-90
2021/11/03 01:40:08;;;;;;;65.13;27.17;;;;;;;;;;5016558;28;20031;-90
2021/11/03 01:42:35;;;;;;;74.60;27.40;;;;;;;;;;4988347;28;20054;-90
2021/11/03 01:45:00;;;;;;;65.00;27.30;;;;;;;;;;5001978;28;20029;-91
2021/11/03 01:47:51;;;;;;;61.25;25.98;;;;;;;;;;5017827;28;20484;-90
2021/11/03 01:50:23;;;;;;;64.13;25.05;;;;;;;;;;5016946;28;20129;-91
2021/11/03 01:52:53;;;;;;;65.18;26.70;;;;;;;;;;5016912;28;20018;-90
2021/11/03 01:55:20;;;;;;;63.20;26.95;;;;;;;;;;4999478;28;20025;-90
2021/11/03 01:57:54;;;;;;;59.58;25.98;;;;;;;;;;4998423;28;20033;-91
2021/11/03 02:00:26;;;;;;;62.80;25.10;;;;;;;;;;5009524;28;20472;-91
2021/11/03 02:02:54;;;;;;;;;;;;;;;;;;4981287;28;20473;-90
2021/11/03 02:05:20;;;;;;;55.60;25.48;;;;;;;;;;4980372;28;19937;-90
2021/11/03 02:07:48;;;;;;;59.63;25.35;;;;;;;;;;4980831;28;20026;-90
2021/11/03 02:10:14;;;;;;;56.83;24.17;;;;;;;;;;4986878;28;20022;-90
2021/11/03 02:12:40;;;;;;;60.67;27.25;;;;;;;;;;5001988;28;20037;-90
2021/11/03 02:15:07;;;;;;;67.15;28.00;;;;;;;;;;4997362;28;20033;-91
2021/11/03 02:17:35;;;;;;;74.60;29.00;;;;;;;;;;4999143;28;20058;-91
2021/11/03 02:20:07;;;;;;;67.10;29.85;;;;;;;;;;4995295;28;20030;-91
2021/11/03 02:22:47;;;;;;;77.70;30.75;;;;;;;;;;4979865;28;20030;-91
2021/11/03 02:25:19;;;;;;;65.63;27.20;;;;;;;;;;4980290;28;20026;-91
2021/11/03 02:27:48;;;;;;;62.92;26.63;;;;;;;;;;4979860;28;20030;-91
2021/11/03 02:30:20;;;;;;;64.22;27.63;;;;;;;;;;4991911;28;20538;-91
2021/11/03 02:32:52;;;;;;;58.72;26.23;;;;;;;;;;5003405;28;20029;-90
2021/11/03 02:35:18;;;;;;;58.30;25.87;;;;;;;;;;5003284;28;20057;-91
2021/11/03 02:37:52;;;;;;;55.10;25.17;;;;;;;;;;4998517;28;20272;-91
2021/11/03 02:40:42;;;;;;;58.85;25.10;;;;;;;;;;4989364;28;20034;-91
2021/11/03 02:43:24;;;;;;;57.75;24.17;;;;;;;;;;5003979;28;20122;-91
2021/11/03 02:45:53;;;;;;;53.50;24.52;;;;;;;;;;5003724;28;20060;-91
2021/11/03 02:48:20;;;;;;;53.78;23.42;;;;;;;;;;5002500;28;20022;-90
2021/11/03 02:50:57;;;;;;;52.05;23.27;;;;;;;;;;5002412;28;20026;-90
2021/11/03 02:53:23;;;;;;;56.83;24.92;;;;;;;;;;4997795;28;20484;-90
2021/11/03 02:55:49;;;;;;;52.28;23.20;;;;;;;;;;4989429;28;20028;-91
2021/11/03 02:58:15;;;;;;;48.40;23.38;;;;;;;;;;5002862;28;20369;-90
2021/11/03 03:00:40;;;;;;;55.13;23.83;;;;;;;;;;5003397;28;20033;-91
2021/11/03 03:03:06;;;;;;;50.72;22.67;;;;;;;;;;5003727;28;20439;-91
2021/11/03 03:05:31;;;;;;;50.05;24.23;;;;;;;;;;5015682;28;20025;-89
2021/11/03 03:07:57;;;;;;;51.83;24.35;;;;;;;;;;5024522;28;20026;-90
2021/11/03 03:10:22;;;;;;;54.40;24.27;;;;;;;;;;5015543;28;20090;-90
2021/11/03 03:12:48;;;;;;;49.17;21.98;;;;;;;;;;4991540;28;20030;-90
2021/11/03 03:15:13;;;;;;;47.75;22.85;;;;;;;;;;5002255;28;20056;-90
2021/11/03 03:17:38;;;;;;;51.58;21.85;;;;;;;;;;4982791;28;20122;-90
2021/11/03 03:20:06;;;;;;;48.35;22.60;;;;;;;;;;4999645;28;20378;-90
2021/11/03 03:22:31;;;;;;;55.78;22.48;;;;;;;;;;4982876;28;20133;-90
2021/11/03 03:24:57;;;;;;;53.05;23.42;;;;;;;;;;4982695;28;20509;-89
2021/11/03 03:27:22;;;;;;;45.75;22.73;;;;;;;;;;5001774;28;20488;-90
2021/11/03 03:29:48;;;;;;;46.22;22.65;;;;;;;;;;4996135;28;20057;-91
2021/11/03 03:32:14;;;;;;;49.05;22.58;;;;;;;;;;5002851;28;20488;-90
2021/11/03 03:34:40;;;;;;;51.13;22.50;;;;;;;;;;5020131;28;20033;-90
2021/11/03 03:37:06;;;;;;;46.40;22.33;;;;;;;;;;5001909;28;20080;-90
2021/11/03 03:39:31;;;;;;;49.35;22.70;;;;;;;;;;5001648;28;20030;-91
2021/11/03 03:42:05;;;;;;;57.47;25.65;;;;;;;;;;4998647;28;20029;-90
2021/11/03 03:44:31;;;;;;;58.10;24.45;;;;;;;;;;4983395;28;20034;-90
2021/11/03 03:46:56;;;;;;;61.00;25.35;;;;;;;;;;4991126;28;20023;-90
2021/11/03 03:49:22;;;;;;;56.40;24.90;;;;;;;;;;4982322;28;20034;-91
2021/11/03 03:51:48;;;;;;;48.60;22.50;;;;;;;;;;4983407;28;20027;-90
2021/11/03 03:54:13;;;;;;;53.53;23.73;;;;;;;;;;5002166;28;20461;-90
2021/11/03 03:56:39;;;;;;;46.83;23.70;;;;;;;;;;5002063;28;20045;-90
2021/11/03 03:59:04;;;;;;;52.63;23.67;;;;;;;;;;4986201;28;20057;-90
2021/11/03 04:01:30;;;;;;;48.92;24.38;;;;;;;;;;4982447;28;20014;-90
2021/11/03 04:03:56;;;;;;;53.42;23.48;;;;;;;;;;4999467;28;20098;-90
2021/11/03 04:06:22;;;;;;;53.08;24.02;;;;;;;;;;4987792;28;20486;-90
2021/11/03 04:08:47;;;;;;;60.03;24.45;;;;;;;;;;4999093;28;20037;-90
2021/11/03 04:11:13;;;;;;;60.95;25.30;;;;;;;;;;4982470;28;20030;-90
2021/11/03 04:13:40;;;;;;;70.85;26.38;;;;;;;;;;4995297;28;20402;-90
2021/11/03 04:16:05;;;;;;;53.60;24.45;;;;;;;;;;4983966;28;20030;-91
2021/11/03 04:18:31;;;;;;;63.67;26.60;;;;;;;;;;4982677;28;20023;-90
2021/11/03 04:20:57;;;;;;;63.03;25.85;;;;;;;;;;4985082;28;20453;-90
2021/11/03 04:23:23;;;;;;;65.60;28.70;;;;;;;;;;4985231;28;20132;-90
2021/11/03 04:25:49;;;;;;;78.50;29.73;;;;;;;;;;5003989;28;20038;-90
2021/11/03 04:28:15;;;;;;;76.25;28.08;;;;;;;;;;4986270;28;20030;-90
2021/11/03 04:30:41;;;;;;;67.47;27.88;;;;;;;;;;5001215;28;20093;-90
2021/11/03 04:33:06;;;;;;;65.88;28.40;;;;;;;;;;5002461;28;20057;-90
2021/11/03 04:35:32;;;;;;;58.70;26.85;;;;;;;;;;5001966;28;20025;-90
2021/11/03 04:37:58;;;;;;;57.88;26.52;;;;;;;;;;5000093;28;20507;-90
2021/11/03 04:40:25;;;;;;;60.55;26.45;;;;;;;;;;5000445;28;20041;-90
2021/11/03 04:42:51;;;;;;;52.83;25.10;;;;;;;;;;5017796;28;20022;-90
2021/11/03 04:45:18;;;;;;;58.53;24.95;;;;;;;;;;5004703;28;20025;-90
2021/11/03 04:47:44;;;;;;;55.55;24.30;;;;;;;;;;5001306;28;20026;-90
2021/11/03 04:50:15;;;;;;;55.10;24.23;;;;;;;;;;5001326;28;20436;-90
2021/11/03 04:52:41;;;;;;;68.28;26.50;;;;;;;;;;5001037;28;20126;-90
2021/11/03 04:55:07;;;;;;;89.45;26.77;;;;;;;;;;5000381;28;20050;-90
2021/11/03 04:57:32;;;;;;;133.95;28.30;;;;;;;;;;4986294;28;20443;-90
2021/11/03 05:00:01;;;;;;;107.43;28.17;;;;;;;;;;4998571;28;20034;-89
2021/11/03 05:02:27;;;;;;;97.53;28.05;;;;;;;;;;4999287;28;20013;-90
2021/11/03 05:04:53;;;;;;;76.78;27.15;;;;;;;;;;4993639;28;20035;-90
2021/11/03 05:07:18;;;;;;;86.10;26.30;;;;;;;;;;4982047;28;20029;-90
2021/11/03 05:09:43;;;;;;;104.32;27.95;;;;;;;;;;4998798;28;20034;-91
2021/11/03 05:12:12;;;;;;;136.32;26.67;;;;;;;;;;4981388;28;20022;-91
2021/11/03 05:14:38;;;;;;;140.02;25.25;;;;;;;;;;4985962;28;20037;-91
2021/11/03 05:17:04;;;;;;;111.68;23.77;;;;;;;;;;4980591;28;20409;-90
2021/11/03 05:19:32;;;;;;;102.35;24.20;;;;;;;;;;4984743;28;20033;-91
2021/11/03 05:22:14;;;;;;;119.78;23.98;;;;;;;;;;4992389;28;20030;-91
2021/11/03 05:24:40;;;;;;;141.55;24.88;;;;;;;;;;5001706;28;20029;-91
2021/11/03 05:27:19;;;;;;;168.35;25.83;;;;;;;;;;5001425;28;20037;-91
2021/11/03 05:29:48;;;;;;;97.60;26.00;;;;;;;;;;5000472;28;20034;-91
2021/11/03 05:32:13;;;;;;;99.43;23.50;;;;;;;;;;5018599;28;20056;-90
2021/11/03 05:34:39;;;;;;;105.10;26.10;;;;;;;;;;5018325;28;20029;-90
2021/11/03 05:37:04;;;;;;;134.20;27.15;;;;;;;;;;5027750;28;20022;-89
2021/11/03 05:39:31;;;;;;;70.72;24.42;;;;;;;;;;5019360;28;20030;-89
2021/11/03 05:41:57;;;;;;;121.05;26.58;;;;;;;;;;5031775;28;20556;-90
2021/11/03 05:44:22;;;;;;;105.03;28.48;;;;;;;;;;5002185;28;20065;-90
2021/11/03 05:46:52;;;;;;;118.43;29.27;;;;;;;;;;5014854;28;20030;-90
2021/11/03 05:49:21;;;;;;;116.13;26.35;;;;;;;;;;5006775;28;20030;-89
2021/11/03 05:51:48;;;;;;;101.97;26.88;;;;;;;;;;5000201;28;20351;-90
2021/11/03 05:54:16;;;;;;;114.82;26.55;;;;;;;;;;4983661;28;20023;-90
2021/11/03 05:56:49;;;;;;;131.48;26.08;;;;;;;;;;4997846;28;20460;-90
2021/11/03 05:59:17;;;;;;;131.77;30.63;;;;;;;;;;4999129;28;20026;-90
2021/11/03 06:01:43;;;;;;;120.45;27.50;;;;;;;;;;4991241;28;20038;-91
2021/11/03 06:04:09;;;;;;;93.43;26.63;;;;;;;;;;4980141;28;20030;-90
2021/11/03 06:06:51;;;;;;;86.30;26.35;;;;;;;;;;5002100;28;20053;-90
2021/11/03 06:09:17;;;;;;;90.83;27.30;;;;;;;;;;5001174;28;20029;-89
2021/11/03 06:11:45;;;;;;;71.63;24.70;;;;;;;;;;5002404;28;20029;-89
2021/11/03 06:14:11;;;;;;;83.13;25.13;;;;;;;;;;5005932;28;20036;-88
2021/11/03 06:16:37;;;;;;;85.45;25.98;;;;;;;;;;5002343;28;20233;-89
2021/11/03 06:19:03;;;;;;;80.00;26.88;;;;;;;;;;5000485;28;20054;-87
2021/11/03 06:21:29;;;;;;;92.22;29.52;;;;;;;;;;4982724;28;20026;-87
2021/11/03 06:23:54;;;;;;;74.43;25.65;;;;;;;;;;5002184;28;20026;-87
2021/11/03 06:26:22;;;;;;;77.95;24.20;;;;;;;;;;4982710;28;20073;-88
2021/11/03 06:28:47;;;;;;;72.10;27.15;;;;;;;;;;4983240;28;20501;-88
2021/11/03 06:31:13;;;;;;;73.57;26.50;;;;;;;;;;5003843;28;20022;-87
2021/11/03 06:33:39;;;;;;;65.80;24.35;;;;;;;;;;5000862;28;20030;-88
2021/11/03 06:36:07;;;;;;;95.80;26.42;;;;;;;;;;4982544;28;20029;-88
2021/11/03 06:38:33;;;;;;;71.65;25.30;;;;;;;;;;5001721;28;20022;-89
2021/11/03 06:40:59;;;;;;;76.75;25.08;;;;;;;;;;4984578;28;20037;-90
2021/11/03 06:43:25;;;;;;;86.40;25.95;;;;;;;;;;5001427;28;20018;-89
2021/11/03 06:45:50;;;;;;;94.50;25.67;;;;;;;;;;4999853;28;20027;-89
2021/11/03 06:48:16;;;;;;;103.28;26.48;;;;;;;;;;4985524;28;20035;-90
2021/11/03 06:50:41;;;;;;;122.45;26.90;;;;;;;;;;4984222;28;20034;-90
2021/11/03 06:53:10;;;;;;;96.32;27.65;;;;;;;;;;4994026;28;20037;-89
2021/11/03 06:55:37;;;;;;;83.75;27.48;;;;;;;;;;5006049;28;20053;-89
2021/11/03 06:58:03;;;;;;;96.63;26.95;;;;;;;;;;5001529;28;20485;-89
2021/11/03 07:00:34;;;;;;;92.15;28.02;;;;;;;;;;5019247;28;20109;-89
2021/11/03 07:03:00;;;;;;;89.40;26.38;;;;;;;;;;5002867;28;20400;-89
2021/11/03 07:05:28;;;;;;;87.38;26.45;;;;;;;;;;5006325;28;20033;-89
2021/11/03 07:07:53;;;;;;;75.75;25.40;;;;;;;;;;5002187;28;20028;-89
2021/11/03 07:10:27;;;;;;;75.68;25.92;;;;;;;;;;5018175;28;20017;-89
2021/11/03 07:12:53;;;;;;;68.65;25.75;;;;;;;;;;5003446;28;20033;-89
2021/11/03 07:15:19;;;;;;;67.90;25.27;;;;;;;;;;5019591;28;20026;-90
2021/11/03 07:17:45;;;;;;;72.53;26.58;;;;;;;;;;5003010;28;20121;-90
2021/11/03 07:20:11;;;;;;;70.75;26.48;;;;;;;;;;5004330;28;20061;-87
2021/11/03 07:22:37;;;;;;;74.55;27.13;;;;;;;;;;5002574;28;20094;-89
2021/11/03 07:25:04;;;;;;;81.18;27.38;;;;;;;;;;5004005;28;20068;-89
2021/11/03 07:27:29;;;;;;;89.28;27.23;;;;;;;;;;5004248;28;20021;-90
2021/11/03 07:29:54;;;;;;;82.55;28.40;;;;;;;;;;5001078;28;20152;-90
2021/11/03 07:32:20;;;;;;;70.78;26.15;;;;;;;;;;5002538;28;20470;-89
2021/11/03 07:34:45;;;;;;;67.22;27.17;;;;;;;;;;5001876;28;20021;-89
2021/11/03 07:37:11;;;;;;;75.82;28.45;;;;;;;;;;5018468;28;20036;-90
2021/11/03 07:39:36;;;;;;;68.15;27.27;;;;;;;;;;5002124;28;20034;-89
2021/11/03 07:42:01;;;;;;;75.25;28.42;;;;;;;;;;5001979;28;20029;-90
2021/11/03 07:44:27;;;;;;;70.55;26.17;;;;;;;;;;5017603;28;20037;-89
2021/11/03 07:46:52;;;;;;;68.18;24.33;;;;;;;;;;5001040;28;20057;-89
2021/11/03 07:49:18;;;;;;;88.93;31.17;;;;;;;;;;5018558;28;20033;-90
2021/11/03 07:51:44;;;;;;;110.43;40.47;;;;;;;;;;5004198;28;20068;-89
2021/11/03 07:54:10;;;;;;;97.95;33.30;;;;;;;;;;5035453;28;20057;-90
2021/11/03 07:56:40;;;;;;;70.97;27.70;;;;;;;;;;5022591;28;20030;-90
2021/11/03 07:59:07;;;;;;;64.22;26.25;;;;;;;;;;5001207;28;20033;-90
2021/11/03 08:01:33;;;;;;;74.78;27.27;;;;;;;;;;5001012;28;20397;-90
2021/11/03 08:03:58;;;;;;;66.88;26.52;;;;;;;;;;5001961;28;20124;-91
2021/11/03 08:06:24;;;;;;;59.08;24.92;;;;;;;;;;5001597;28;20049;-90
2021/11/03 08:09:01;;;;;;;64.18;26.95;;;;;;;;;;5002448;28;20397;-90
2021/11/03 08:11:29;;;;;;;59.78;26.40;;;;;;;;;;5001830;28;20030;-90
2021/11/03 08:13:54;;;;;;;91.80;30.45;;;;;;;;;;5016215;28;20028;-89
2021/11/03 08:16:22;;;;;;;70.55;28.55;;;;;;;;;;5021591;28;20014;-89
2021/11/03 08:18:48;;;;;;;71.88;27.40;;;;;;;;;;5010425;28;20042;-90
2021/11/03 08:21:14;;;;;;;68.55;26.88;;;;;;;;;;4986125;28;20088;-90
2021/11/03 08:23:40;;;;;;;65.00;27.55;;;;;;;;;;4981267;28;20120;-90
2021/11/03 08:26:06;;;;;;;61.28;24.23;;;;;;;;;;4981583;28;20108;-90
2021/11/03 08:28:32;;;;;;;60.17;25.27;;;;;;;;;;4998258;28;20026;-90
2021/11/03 08:30:58;;;;;;;68.97;28.10;;;;;;;;;;4998404;28;20030;-90
2021/11/03 08:33:30;;;;;;;82.55;27.55;;;;;;;;;;4982378;28;20105;-90
2021/11/03 08:35:58;;;;;;;72.18;30.40;;;;;;;;;;4975190;28;20029;-90
2021/11/03 08:38:24;;;;;;;75.57;26.50;;;;;;;;;;4986057;28;20026;-90
2021/11/03 08:40:50;;;;;;;63.88;25.98;;;;;;;;;;5004233;28;20113;-90
2021/11/03 08:43:23;;;;;;;57.17;26.35;;;;;;;;;;4996263;28;20029;-89
2021/11/03 08:45:55;;;;;;;62.10;26.23;;;;;;;;;;5000173;28;20038;-89
2021/11/03 08:48:24;;;;;;;62.25;26.92;;;;;;;;;;4981092;28;20105;-89
2021/11/03 08:50:51;;;;;;;60.92;26.92;;;;;;;;;;4997448;28;20030;-90
2021/11/03 08:53:18;;;;;;;66.65;30.77;;;;;;;;;;4997805;28;20109;-89
2021/11/03 08:55:45;;;;;;;66.93;25.30;;;;;;;;;;4997546;28;20030;-90
2021/11/03 08:58:13;;;;;;;62.30;24.77;;;;;;;;;;4980280;28;20037;-90
2021/11/03 09:00:41;;;;;;;59.63;25.30;;;;;;;;;;4980562;28;20402;-90
2021/11/03 09:03:07;;;;;;;55.28;23.30;;;;;;;;;;4980450;28;20121;-90
2021/11/03 09:05:33;;;;;;;54.30;23.30;;;;;;;;;;4997941;28;20034;-90
2021/11/03 09:08:02;;;;;;;68.38;26.25;;;;;;;;;;4980435;28;20033;-90
2021/11/03 09:10:31;;;;;;;65.22;26.80;;;;;;;;;;4980676;28;20030;-90
2021/11/03 09:12:57;;;;;;;64.32;24.98;;;;;;;;;;4997607;28;20474;-90
2021/11/03 09:15:22;;;;;;;58.53;25.60;;;;;;;;;;4982905;28;20032;-90
2021/11/03 09:17:48;;;;;;;55.10;23.08;;;;;;;;;;4982446;28;20049;-89
2021/11/03 09:20:15;;;;;;;55.78;24.27;;;;;;;;;;4998251;28;20034;-90
2021/11/03 09:22:41;;;;;;;62.35;27.63;;;;;;;;;;4980133;28;20355;-90
2021/11/03 09:25:15;;;;;;;60.42;25.92;;;;;;;;;;4979845;28;20030;-90
2021/11/03 09:27:41;;;;;;;64.18;24.00;;;;;;;;;;4981146;28;20034;-90
2021/11/03 09:30:10;;;;;;;57.47;25.52;;;;;;;;;;4980189;28;20022;-90
2021/11/03 09:32:39;;;;;;;66.07;25.98;;;;;;;;;;5010395;28;20029;-89
2021/11/03 09:35:05;;;;;;;59.45;26.52;;;;;;;;;;4987821;28;20033;-89
2021/11/03 09:37:32;;;;;;;64.22;26.50;;;;;;;;;;4999323;28;20046;-90
2021/11/03 09:39:58;;;;;;;59.72;26.33;;;;;;;;;;4980256;28;20456;-90
2021/11/03 09:42:25;;;;;;;57.03;26.83;;;;;;;;;;4979776;28;20022;-89
2021/11/03 09:44:53;;;;;;;61.70;27.30;;;;;;;;;;4996111;28;20026;-90
2021/11/03 09:47:31;;;;;;;70.72;27.35;;;;;;;;;;4980613;28;20034;-89
2021/11/03 09:50:01;;;;;;;70.22;26.15;;;;;;;;;;4979660;28;20026;-89
2021/11/03 09:52:39;;;;;;;59.03;24.83;;;;;;;;;;5002769;28;20030;-89
2021/11/03 09:55:13;;;;;;;63.70;26.40;;;;;;;;;;4999397;28;20026;-89
2021/11/03 09:57:56;;;;;;;59.10;26.40;;;;;;;;;;5024931;28;20026;-90
2021/11/03 10:00:37;;;;;;;62.90;26.05;;;;;;;;;;5015537;28;20049;-91
2021/11/03 10:03:43;;;;;;;59.10;25.05;;;;;;;;;;5002779;28;20137;-91
2021/11/03 10:06:18;;;;;;;59.17;25.95;;;;;;;;;;5021375;28;20357;-90
2021/11/03 10:08:47;;;;;;;65.80;26.27;;;;;;;;;;5017568;28;20029;-90
2021/11/03 10:11:20;;;;;;;64.65;27.52;;;;;;;;;;5000055;28;20028;-90
2021/11/03 10:13:47;;;;;;;;;;;;;;;;;;5016083;28;20044;-90
2021/11/03 10:16:15;;;;;;;69.07;26.35;;;;;;;;;;5019084;28;19913;-90
2021/11/03 10:19:02;;;;;;;79.13;29.58;;;;;;;;;;5002704;28;20030;-90
2021/11/03 10:21:35;;;;;;;62.05;25.55;;;;;;;;;;4998597;28;20022;-90
2021/11/03 10:24:29;;;;;;;62.30;26.83;;;;;;;;;;5017538;28;20033;-90
2021/11/03 10:26:54;;;;;;;58.55;25.50;;;;;;;;;;5000174;28;20135;-89
2021/11/03 10:29:34;;;;;;;62.08;27.10;;;;;;;;;;4999546;28;20448;-90
2021/11/03 10:32:03;;;;;;;71.60;28.08;;;;;;;;;;5017389;28;20033;-90
2021/11/03 10:34:35;;;;;;;56.22;26.63;;;;;;;;;;5000978;28;20026;-90
2021/11/03 10:37:11;;;;;;;66.15;27.45;;;;;;;;;;5001545;28;20026;-90
2021/11/03 10:39:48;;;;;;;56.22;24.92;;;;;;;;;;5001596;28;20048;-90
2021/11/03 10:42:42;;;;;;;69.15;27.70;;;;;;;;;;4998777;28;20052;-90
2021/11/03 10:45:34;;;;;;;63.30;25.98;;;;;;;;;;4994952;28;20144;-89
2021/11/03 10:48:18;;;;;;;67.82;25.35;;;;;;;;;;5019548;28;20085;-89
2021/11/03 10:51:13;;;;;;;58.47;24.98;;;;;;;;;;5012436;28;20034;-90
2021/11/03 10:53:38;;;;;;;70.43;24.70;;;;;;;;;;4963860;28;20042;-90
2021/11/03 10:56:17;;;;;;;63.60;24.90;;;;;;;;;;5006817;28;20034;-90
2021/11/03 10:58:49;;;;;;;62.97;24.50;;;;;;;;;;5005012;28;20032;-89
2021/11/03 11:01:45;;;;;;;55.63;24.80;;;;;;;;;;5003021;28;20048;-90
2021/11/03 11:04:22;;;;;;;57.70;25.77;;;;;;;;;;5002601;28;20025;-90
2021/11/03 11:07:14;;;;;;;59.70;25.58;;;;;;;;;;5002399;28;20029;-90
2021/11/03 11:09:43;;;;;;;65.55;24.58;;;;;;;;;;5003485;28;20380;-89
2021/11/03 11:12:24;;;;;;;61.13;25.33;;;;;;;;;;5002318;28;20033;-90
2021/11/03 11:14:56;;;;;;;66.97;24.67;;;;;;;;;;5003016;28;20052;-90
2021/11/03 11:17:35;;;;;;;63.08;23.33;;;;;;;;;;5005380;28;20034;-90
2021/11/03 11:20:26;;;;;;;56.20;24.77;;;;;;;;;;5022893;28;20022;-90
2021/11/03 11:23:00;;;;;;;59.67;26.63;;;;;;;;;;5008189;28;20500;-90
2021/11/03 11:25:32;;;;;;;63.45;24.60;;;;;;;;;;5006298;28;20041;-90
2021/11/03 11:28:11;;;;;;;80.55;24.70;;;;;;;;;;5008447;28;20010;-91
2021/11/03 11:31:00;;;;;;;53.47;25.27;;;;;;;;;;5004578;28;20420;-91
2021/11/03 11:33:29;;;;;;;51.45;24.10;;;;;;;;;;5004496;28;20026;-91
2021/11/03 11:36:13;;;;;;;61.55;26.50;;;;;;;;;;5002638;28;20489;-90
2021/11/03 11:38:50;;;;;;;65.35;25.45;;;;;;;;;;5002522;28;20033;-91
2021/11/03 11:41:33;;;;;;;74.15;25.08;;;;;;;;;;5002960;28;20392;-91
2021/11/03 11:44:12;;;;;;;51.65;24.02;;;;;;;;;;5003283;28;20026;-88
2021/11/03 11:46:38;;;;;;;65.80;26.88;;;;;;;;;;5002277;28;20030;-91
2021/11/03 11:49:25;;;;;;;56.97;25.73;;;;;;;;;;5001788;28;20026;-91
2021/11/03 11:51:57;;;;;;;51.13;24.10;;;;;;;;;;5001710;28;20026;-91
2021/11/03 11:54:33;;;;;;;61.15;25.70;;;;;;;;;;5002966;28;20029;-91
2021/11/03 11:57:11;;;;;;;104.22;29.10;;;;;;;;;;5003566;28;20034;-89
2021/11/03 12:00:09;;;;;;;60.72;25.95;;;;;;;;;;5007167;28;20481;-88
2021/11/03 12:03:07;;;;;;;56.58;25.52;;;;;;;;;;5002225;28;20401;-91
2021/11/03 12:05:43;;;;;;;58.83;25.08;;;;;;;;;;4962634;28;20484;-89
2021/11/03 12:08:08;;;;;;;56.33;26.10;;;;;;;;;;5002335;28;20068;-89
2021/11/03 12:10:37;;;;;;;72.10;27.95;;;;;;;;;;5001872;28;20021;-89
2021/11/03 12:13:08;;;;;;;59.33;27.45;;;;;;;;;;5019738;28;20108;-89
2021/11/03 12:15:50;;;;;;;63.60;26.73;;;;;;;;;;5003292;28;20385;-89
2021/11/03 12:18:28;;;;;;;59.88;26.77;;;;;;;;;;5021790;28;20030;-89
2021/11/03 12:21:02;;;;;;;64.40;25.95;;;;;;;;;;5003033;28;20173;-89
2021/11/03 12:23:42;;;;;;;68.30;27.13;;;;;;;;;;4987016;28;20033;-88
2021/11/03 12:26:26;;;;;;;60.85;26.77;;;;;;;;;;4982751;28;20519;-89
2021/11/03 12:29:19;;;;;;;65.85;26.70;;;;;;;;;;4999693;28;20025;-89
2021/11/03 12:31:45;;;;;;;55.97;25.58;;;;;;;;;;4971556;28;20039;-89
2021/11/03 12:34:10;;;;;;;57.47;26.05;;;;;;;;;;5000759;28;20026;-89
2021/11/03 12:36:52;;;;;;;63.13;26.13;;;;;;;;;;4998267;28;20033;-89
2021/11/03 12:39:29;;;;;;;64.35;27.23;;;;;;;;;;4982843;28;20458;-88
2021/11/03 12:41:59;;;;;;;70.65;28.30;;;;;;;;;;4997835;28;20054;-88
2021/11/03 12:44:30;;;;;;;63.70;27.15;;;;;;;;;;4985347;28;20050;-89
2021/11/03 12:46:56;;;;;;;66.35;27.65;;;;;;;;;;4982054;28;20032;-89
2021/11/03 12:49:24;;;;;;;74.82;27.95;;;;;;;;;;4999058;28;20456;-89
2021/11/03 12:51:52;;;;;;;67.72;28.88;;;;;;;;;;4983868;28;20088;-89
2021/11/03 12:54:24;;;;;;;76.43;29.42;;;;;;;;;;5001661;28;20449;-88
2021/11/03 12:57:00;;;;;;;79.40;29.85;;;;;;;;;;5018414;28;20064;-89
2021/11/03 12:59:37;;;;;;;73.85;27.92;;;;;;;;;;5000653;28;20064;-89
2021/11/03 13:02:15;;;;;;;77.78;30.65;;;;;;;;;;5000608;28;20033;-88
2021/11/03 13:04:47;;;;;;;65.78;28.10;;;;;;;;;;5002027;28;20465;-89
2021/11/03 13:07:26;;;;;;;62.45;30.48;;;;;;;;;;5022550;28;20041;-89
2021/11/03 13:10:08;;;;;;;70.32;29.85;;;;;;;;;;5020134;28;20037;-89
2021/11/03 13:12:36;;;;;;;60.28;26.35;;;;;;;;;;5003019;28;20032;-88
2021/11/03 13:15:19;;;;;;;70.97;28.25;;;;;;;;;;5019466;28;20038;-89
2021/11/03 13:17:50;;;;;;;63.42;27.13;;;;;;;;;;5020270;28;20030;-88
2021/11/03 13:20:21;;;;;;;67.97;30.50;;;;;;;;;;5021393;28;20089;-89
2021/11/03 13:22:50;;;;;;;75.95;30.20;;;;;;;;;;5003435;28;20034;-89
2021/11/03 13:25:24;;;;;;;68.32;29.73;;;;;;;;;;5000735;28;20393;-87
2021/11/03 13:27:51;;;;;;;77.60;28.60;;;;;;;;;;5001077;28;20076;-88
2021/11/03 13:30:26;;;;;;;72.10;29.25;;;;;;;;;;5000656;28;20477;-89
2021/11/03 13:32:56;;;;;;;75.50;30.85;;;;;;;;;;5001075;28;20034;-89
2021/11/03 13:35:30;;;;;;;68.38;28.27;;;;;;;;;;5005443;28;20068;-89
2021/11/03 13:38:01;;;;;;;72.75;30.10;;;;;;;;;;5015888;28;20029;-89
2021/11/03 13:40:31;;;;;;;79.78;29.73;;;;;;;;;;5023403;28;20087;-89
2021/11/03 13:42:57;;;;;;;66.97;29.35;;;;;;;;;;5018814;28;20018;-89
2021/11/03 13:45:29;;;;;;;74.40;30.77;;;;;;;;;;5002335;28;20030;-89
2021/11/03 13:48:06;;;;;;;73.63;29.85;;;;;;;;;;5004133;28;20033;-89
2021/11/03 13:50:41;;;;;;;68.00;27.95;;;;;;;;;;5001289;28;20042;-89
2021/11/03 13:53:09;;;;;;;71.80;29.85;;;;;;;;;;5018470;28;20041;-89
2021/11/03 13:55:57;;;;;;;68.10;28.48;;;;;;;;;;5000604;28;20033;-89
2021/11/03 13:58:49;;;;;;;74.18;29.42;;;;;;;;;;5017572;28;20036;-89
2021/11/03 14:01:14;;;;;;;76.32;29.92;;;;;;;;;;4999991;28;20037;-89
2021/11/03 14:03:44;;;;;;;73.65;28.35;;;;;;;;;;5006409;28;20373;-89
2021/11/03 14:06:19;;;;;;;65.55;26.92;;;;;;;;;;5001417;28;20026;-89
2021/11/03 14:08:46;;;;;;;65.32;29.15;;;;;;;;;;5018530;28;20022;-89
2021/11/03 14:11:12;;;;;;;75.05;30.42;;;;;;;;;;5000687;28;20033;-89
2021/11/03 14:13:38;;;;;;;71.43;30.35;;;;;;;;;;5001622;28;20030;-89
2021/11/03 14:16:21;;;;;;;73.75;28.60;;;;;;;;;;5002321;28;20496;-89
2021/11/03 14:18:48;;;;;;;81.18;31.80;;;;;;;;;;5018018;28;20080;-91
2021/11/03 14:21:13;;;;;;;74.57;30.83;;;;;;;;;;4999350;28;20025;-88
2021/11/03 14:23:39;;;;;;;70.05;28.67;;;;;;;;;;5002977;28;20449;-90
2021/11/03 14:26:04;;;;;;;72.35;30.42;;;;;;;;;;4982702;28;20481;-91
2021/11/03 14:28:30;;;;;;;78.43;29.77;;;;;;;;;;4985016;28;20037;-89
2021/11/03 14:31:00;;;;;;;68.07;28.98;;;;;;;;;;4984145;28;20117;-88